createdAt,value
2019-03-09T00:01:54.038Z,6.20
2019-03-09T00:04:22.865Z,6.20
2019-03-09T00:06:52.806Z,6.20
2019-03-09T00:09:21.645Z,6.20
2019-03-09T00:11:52.611Z,6.30
2019-03-09T00:14:27.544Z,6.20
2019-03-09T00:16:56.459Z,6.20
2019-03-09T00:19:25.378Z,6.20
2019-03-09T00:21:56.331Z,6.20
2019-03-09T00:24:38.685Z,6.20
2019-03-09T00:27:30.162Z,6.10
2019-03-09T00:30:23.233Z,6.00
2019-03-09T00:32:52.118Z,6.00
2019-03-09T00:35:20.938Z,6.00
2019-03-09T00:37:49.889Z,6.00
2019-03-09T00:40:21.580Z,6.10
2019-03-09T00:42:50.567Z,6.10
2019-03-09T00:45:19.549Z,6.20
2019-03-09T00:47:48.553Z,6.20
2019-03-09T00:50:17.530Z,6.20
2019-03-09T00:52:46.648Z,6.20
2019-03-09T00:55:15.697Z,6.20
2019-03-09T00:57:44.687Z,6.30
2019-03-09T01:00:16.696Z,6.30
2019-03-09T01:02:45.679Z,6.20
2019-03-09T01:05:15.631Z,6.20
2019-03-09T01:07:44.556Z,6.30
2019-03-09T01:10:15.017Z,6.30
2019-03-09T01:12:43.984Z,6.40
2019-03-09T01:15:14.058Z,6.40
2019-03-09T01:17:42.959Z,6.40
2019-03-09T01:20:13.867Z,6.40
2019-03-09T01:22:42.854Z,6.50
2019-03-09T01:25:11.868Z,6.50
2019-03-09T01:27:40.842Z,6.40
2019-03-09T01:30:13.040Z,6.30
2019-03-09T01:32:42.024Z,6.30
2019-03-09T01:35:11.025Z,6.40
2019-03-09T01:37:40.218Z,6.30
2019-03-09T01:40:11.226Z,6.30
2019-03-09T01:42:59.266Z,6.30
2019-03-09T01:45:28.257Z,6.30
2019-03-09T01:47:58.259Z,6.20
2019-03-09T01:50:27.247Z,6.20
2019-03-09T01:52:56.163Z,6.20
2019-03-09T01:55:25.034Z,6.10
2019-03-09T01:57:54.005Z,6.20
2019-03-09T02:00:22.981Z,6.20
2019-03-09T02:02:52.002Z,6.10
2019-03-09T02:05:20.969Z,6.20
2019-03-09T02:07:49.995Z,6.20
2019-03-09T02:10:18.975Z,6.20
2019-03-09T02:12:47.897Z,6.20
2019-03-09T02:15:17.745Z,6.20
2019-03-09T02:17:48.869Z,6.30
2019-03-09T02:20:17.910Z,6.20
2019-03-09T02:22:46.901Z,6.30
2019-03-09T02:25:16.113Z,6.30
2019-03-09T02:27:45.464Z,6.40
2019-03-09T02:30:14.676Z,6.50
2019-03-09T02:32:43.682Z,6.30
2019-03-09T02:35:12.660Z,6.30
2019-03-09T02:37:41.633Z,6.40
2019-03-09T02:40:13.309Z,6.40
2019-03-09T02:42:42.237Z,6.30
2019-03-09T02:45:13.294Z,6.40
2019-03-09T02:47:42.312Z,6.30
2019-03-09T02:50:12.337Z,6.30
2019-03-09T02:52:41.321Z,6.30
2019-03-09T02:55:10.974Z,6.20
2019-03-09T02:57:40.042Z,6.20
2019-03-09T03:00:18.289Z,6.20
2019-03-09T03:02:53.291Z,6.20
2019-03-09T03:05:22.294Z,6.20
2019-03-09T03:07:51.456Z,6.10
2019-03-09T03:10:20.548Z,6.10
2019-03-09T03:12:49.896Z,6.10
2019-03-09T03:15:35.390Z,6.20
2019-03-09T03:18:04.954Z,6.20
2019-03-09T03:20:34.469Z,6.20
2019-03-09T03:23:05.799Z,6.20
2019-03-09T03:25:35.015Z,6.20
2019-03-09T03:28:06.205Z,6.20
2019-03-09T03:30:41.108Z,6.20
2019-03-09T03:33:10.026Z,6.30
2019-03-09T03:35:39.016Z,6.30
2019-03-09T03:38:08.724Z,6.40
2019-03-09T03:40:37.888Z,6.40
2019-03-09T03:43:07.115Z,6.40
2019-03-09T03:45:36.111Z,6.40
2019-03-09T03:48:05.270Z,6.50
2019-03-09T03:50:36.241Z,6.50
2019-03-09T03:53:05.246Z,6.60
2019-03-09T03:55:34.361Z,6.70
2019-03-09T03:58:03.369Z,6.60
2019-03-09T04:00:32.359Z,6.60
2019-03-09T04:03:03.538Z,6.40
2019-03-09T04:05:32.739Z,6.40
2019-03-09T04:08:01.891Z,6.40
2019-03-09T04:10:30.990Z,6.50
2019-03-09T04:13:00.173Z,6.50
2019-03-09T04:15:29.043Z,6.50
2019-03-09T04:17:57.872Z,6.50
2019-03-09T04:20:26.898Z,6.50
2019-03-09T04:22:55.712Z,6.50
2019-03-09T04:25:24.766Z,6.50
2019-03-09T04:27:53.668Z,6.50
2019-03-09T04:30:22.606Z,6.60
2019-03-09T04:32:51.613Z,6.60
2019-03-09T04:35:20.658Z,6.60
2019-03-09T04:37:49.586Z,6.60
2019-03-09T04:40:18.578Z,6.60
2019-03-09T04:42:47.441Z,6.60
2019-03-09T04:45:16.405Z,6.60
2019-03-09T04:47:45.348Z,6.60
2019-03-09T04:50:13.677Z,6.60
2019-03-09T04:52:42.629Z,6.60
2019-03-09T04:55:11.928Z,6.50
2019-03-09T04:57:40.929Z,6.60
2019-03-09T05:00:09.950Z,6.60
2019-03-09T05:02:38.979Z,6.60
2019-03-09T05:05:08.829Z,6.50
2019-03-09T05:07:50.195Z,6.60
2019-03-09T05:10:25.950Z,6.50
2019-03-09T05:12:58.195Z,6.50
2019-03-09T05:15:27.182Z,6.50
2019-03-09T05:17:56.108Z,6.40
2019-03-09T05:20:25.063Z,6.50
2019-03-09T05:22:54.039Z,6.40
2019-03-09T05:25:22.900Z,6.40
2019-03-09T05:27:51.853Z,6.30
2019-03-09T05:30:40.757Z,6.40
2019-03-09T05:33:09.909Z,6.40
2019-03-09T05:35:38.894Z,6.30
2019-03-09T05:38:07.893Z,6.20
2019-03-09T05:40:36.862Z,6.20
2019-03-09T05:43:05.907Z,6.10
2019-03-09T05:45:35.017Z,6.20
2019-03-09T05:48:04.014Z,6.10
2019-03-09T05:50:33.009Z,6.00
2019-03-09T05:53:08.075Z,6.00
2019-03-09T05:55:37.094Z,5.80
2019-03-09T05:58:06.080Z,5.70
2019-03-09T06:00:36.052Z,5.70
2019-03-09T06:03:05.075Z,5.70
2019-03-09T06:05:35.954Z,5.80
2019-03-09T06:08:05.272Z,5.80
2019-03-09T06:10:34.397Z,5.80
2019-03-09T06:13:03.398Z,5.70
2019-03-09T06:15:32.531Z,5.80
2019-03-09T06:18:01.550Z,5.90
2019-03-09T06:20:30.625Z,5.80
2019-03-09T06:22:59.628Z,5.80
2019-03-09T06:25:28.598Z,5.80
2019-03-09T06:27:57.594Z,5.80
2019-03-09T06:30:26.578Z,5.70
2019-03-09T06:33:30.601Z,5.80
2019-03-09T06:36:12.089Z,5.80
2019-03-09T06:38:44.800Z,5.80
2019-03-09T06:41:16.105Z,5.90
2019-03-09T06:43:45.372Z,6.00
2019-03-09T06:46:14.308Z,6.00
2019-03-09T06:48:43.608Z,6.00
2019-03-09T06:51:12.533Z,6.00
2019-03-09T06:53:41.575Z,6.00
2019-03-09T06:56:11.646Z,6.00
2019-03-09T06:58:40.619Z,6.00
2019-03-09T07:01:20.211Z,6.10
2019-03-09T07:03:49.235Z,6.10
2019-03-09T07:06:18.321Z,6.20
2019-03-09T07:08:47.326Z,6.10
2019-03-09T07:11:16.193Z,6.20
2019-03-09T07:13:52.362Z,6.30
2019-03-09T07:16:16.008Z,6.40
2019-03-09T07:18:45.027Z,6.50
2019-03-09T07:21:14.029Z,6.60
2019-03-09T07:23:45.432Z,6.70
2019-03-09T07:26:16.588Z,6.70
2019-03-09T07:28:46.567Z,6.70
2019-03-09T07:31:15.605Z,6.70
2019-03-09T07:33:44.525Z,6.80
2019-03-09T07:36:16.589Z,6.90
2019-03-09T07:38:46.740Z,6.90
2019-03-09T07:41:15.856Z,7.10
2019-03-09T07:43:53.793Z,7.20
2019-03-09T07:46:22.679Z,7.30
2019-03-09T07:49:01.810Z,7.40
2019-03-09T07:51:38.061Z,7.50
2019-03-09T07:54:09.227Z,7.40
2019-03-09T07:56:39.295Z,7.40
2019-03-09T07:59:09.346Z,7.60
2019-03-09T08:01:45.302Z,7.50
2019-03-09T08:04:14.289Z,7.60
2019-03-09T08:06:43.245Z,7.60
2019-03-09T08:09:12.306Z,7.80
2019-03-09T08:11:41.365Z,8.00
2019-03-09T08:14:19.477Z,8.00
2019-03-09T08:16:54.528Z,8.00
2019-03-09T08:19:23.613Z,7.90
2019-03-09T08:21:58.512Z,8.00
2019-03-09T08:24:29.498Z,8.00
2019-03-09T08:26:58.474Z,8.10
2019-03-09T08:29:27.547Z,8.10
2019-03-09T08:32:11.958Z,8.10
2019-03-09T08:34:43.659Z,8.00
2019-03-09T08:37:14.116Z,8.00
2019-03-09T08:39:45.921Z,8.20
2019-03-09T08:42:16.073Z,8.40
2019-03-09T08:44:52.445Z,8.50
2019-03-09T08:47:21.424Z,8.60
2019-03-09T08:49:52.899Z,8.80
2019-03-09T08:52:30.380Z,8.90
2019-03-09T08:54:59.639Z,8.80
2019-03-09T08:57:28.806Z,8.80
2019-03-09T09:00:00.017Z,9.00
2019-03-09T09:02:31.248Z,9.10
2019-03-09T09:05:15.416Z,9.30
2019-03-09T09:07:51.761Z,9.20
2019-03-09T09:10:24.315Z,9.10
2019-03-09T09:12:53.477Z,8.90
2019-03-09T09:15:23.793Z,8.70
2019-03-09T09:18:03.220Z,8.60
2019-03-09T09:20:38.429Z,8.70
2019-03-09T09:23:13.701Z,8.70
2019-03-09T09:25:43.948Z,8.60
2019-03-09T09:28:15.261Z,8.50
2019-03-09T09:30:48.529Z,8.60
2019-03-09T09:33:17.593Z,8.60
2019-03-09T09:35:46.683Z,8.60
2019-03-09T09:38:17.818Z,8.70
2019-03-09T09:40:53.012Z,8.60
2019-03-09T09:43:31.147Z,8.70
2019-03-09T09:46:02.450Z,8.60
2019-03-09T09:48:31.351Z,8.50
2019-03-09T09:51:00.431Z,8.60
2019-03-09T09:53:32.435Z,8.70
2019-03-09T09:56:07.255Z,9.00
2019-03-09T09:58:36.155Z,8.90
2019-03-09T10:01:06.143Z,8.90
2019-03-09T10:03:35.091Z,8.90
2019-03-09T10:06:06.012Z,8.90
2019-03-09T10:08:36.530Z,8.80
2019-03-09T10:11:07.497Z,8.90
2019-03-09T10:13:36.459Z,8.80
2019-03-09T10:16:06.554Z,8.90
2019-03-09T10:18:36.516Z,9.10
2019-03-09T10:21:07.454Z,9.10
2019-03-09T10:23:36.471Z,9.00
2019-03-09T10:26:05.584Z,8.90
2019-03-09T10:28:37.681Z,9.00
2019-03-09T10:31:06.673Z,8.90
2019-03-09T10:33:41.438Z,8.90
2019-03-09T10:36:14.426Z,9.00
2019-03-09T10:38:51.457Z,9.20
2019-03-09T10:41:20.469Z,9.30
2019-03-09T10:43:59.923Z,9.50
2019-03-09T10:46:30.140Z,9.60
2019-03-09T10:49:00.727Z,9.90
2019-03-09T10:51:32.865Z,10.00
2019-03-09T10:54:02.006Z,10.10
2019-03-09T10:56:40.016Z,10.10
2019-03-09T10:59:42.193Z,10.20
2019-03-09T11:03:05.073Z,10.10
2019-03-09T11:05:52.656Z,9.80
2019-03-09T11:08:41.546Z,9.60
2019-03-09T11:11:49.752Z,9.80
2019-03-09T11:14:19.706Z,9.80
2019-03-09T11:17:01.754Z,10.00
2019-03-09T11:19:30.762Z,9.70
2019-03-09T11:22:05.974Z,9.70
2019-03-09T11:24:43.334Z,9.80
2019-03-09T11:27:12.453Z,9.80
2019-03-09T11:29:41.486Z,9.70
2019-03-09T11:32:12.511Z,9.60
2019-03-09T11:34:52.833Z,9.60
2019-03-09T11:37:21.932Z,9.70
2019-03-09T11:39:52.503Z,9.80
2019-03-09T11:42:27.389Z,9.80
2019-03-09T11:44:56.441Z,9.90
2019-03-09T11:47:25.434Z,9.70
2019-03-09T11:49:54.295Z,9.70
2019-03-09T11:52:24.330Z,9.50
2019-03-09T11:54:59.166Z,9.50
2019-03-09T11:57:37.427Z,9.50
2019-03-09T12:00:12.097Z,9.60
2019-03-09T12:02:43.238Z,9.80
2019-03-09T12:05:24.456Z,9.60
2019-03-09T12:07:59.376Z,9.60
2019-03-09T12:10:34.369Z,9.60
2019-03-09T12:13:18.535Z,9.60
2019-03-09T12:15:59.100Z,9.70
2019-03-09T12:18:28.487Z,9.50
2019-03-09T12:20:58.623Z,9.40
2019-03-09T12:23:28.698Z,9.40
2019-03-09T12:26:06.826Z,9.30
2019-03-09T12:28:35.821Z,9.30
2019-03-09T12:31:11.367Z,9.30
2019-03-09T12:33:42.757Z,9.30
2019-03-09T12:36:14.016Z,9.30
2019-03-09T12:38:43.125Z,9.30
2019-03-09T12:41:18.185Z,9.20
2019-03-09T12:43:47.251Z,9.30
2019-03-09T12:46:16.352Z,9.40
2019-03-09T12:49:01.772Z,9.50
2019-03-09T12:51:31.775Z,9.60
2019-03-09T12:54:04.037Z,9.70
2019-03-09T12:59:40.242Z,9.60
2019-03-09T13:02:13.971Z,9.70
2019-03-09T13:04:51.321Z,9.70
2019-03-09T13:07:22.437Z,9.50
2019-03-09T13:09:57.578Z,9.60
2019-03-09T13:12:28.642Z,9.70
2019-03-09T13:14:58.686Z,9.80
2019-03-09T13:17:53.072Z,9.90
2019-03-09T13:20:29.211Z,10.00
2019-03-09T13:22:58.193Z,10.10
2019-03-09T13:25:33.147Z,10.20
2019-03-09T13:28:16.603Z,10.10
2019-03-09T13:30:56.725Z,10.10
2019-03-09T13:33:26.736Z,10.10
2019-03-09T13:36:02.663Z,10.20
2019-03-09T13:38:33.727Z,10.20
2019-03-09T13:41:07.146Z,10.40
2019-03-09T13:43:37.232Z,10.50
2019-03-09T13:46:07.275Z,10.50
2019-03-09T13:48:39.977Z,10.50
2019-03-09T13:51:11.634Z,10.40
2019-03-09T13:53:47.847Z,10.40
2019-03-09T13:56:17.491Z,10.20
2019-03-09T13:58:47.582Z,10.10
2019-03-09T14:01:26.233Z,10.00
2019-03-09T14:03:53.423Z,10.00
2019-03-09T14:06:27.188Z,10.00
2019-03-09T14:09:01.010Z,9.90
2019-03-09T14:11:32.448Z,9.80
2019-03-09T14:14:05.266Z,9.70
2019-03-09T14:16:41.115Z,9.60
2019-03-09T14:19:14.051Z,9.40
2019-03-09T14:21:43.807Z,9.30
2019-03-09T14:24:13.593Z,9.20
2019-03-09T14:26:44.933Z,9.10
2019-03-09T14:29:14.416Z,9.10
2019-03-09T14:31:49.115Z,9.10
2019-03-09T14:34:22.815Z,9.00
2019-03-09T14:36:56.150Z,9.00
2019-03-09T14:39:31.922Z,9.00
2019-03-09T14:42:01.877Z,9.00
2019-03-09T14:44:34.874Z,9.10
2019-03-09T14:47:06.008Z,9.10
2019-03-09T14:49:43.379Z,9.10
2019-03-09T14:52:13.029Z,9.00
2019-03-09T14:54:48.698Z,9.00
2019-03-09T14:57:23.398Z,9.10
2019-03-09T14:59:53.880Z,9.10
2019-03-09T15:06:44.560Z,9.20
2019-03-09T15:09:13.853Z,9.40
2019-03-09T15:11:51.955Z,9.50
2019-03-09T15:14:21.291Z,9.40
2019-03-09T15:16:56.306Z,9.50
2019-03-09T15:19:26.612Z,9.50
2019-03-09T15:21:58.217Z,9.70
2019-03-09T15:24:43.810Z,9.60
2019-03-09T15:27:13.008Z,9.50
2019-03-09T15:29:42.519Z,9.40
2019-03-09T15:32:11.558Z,9.40
2019-03-09T15:34:40.666Z,9.30
2019-03-09T15:37:10.677Z,9.20
2019-03-09T15:39:39.694Z,9.20
2019-03-09T15:42:10.374Z,9.20
2019-03-09T15:44:39.393Z,9.20
2019-03-09T15:47:08.422Z,9.20
2019-03-09T15:49:37.392Z,9.20
2019-03-09T15:52:07.097Z,9.20
2019-03-09T15:54:37.434Z,9.20
2019-03-09T15:57:07.179Z,9.10
2019-03-09T15:59:36.887Z,9.10
2019-03-09T16:02:11.051Z,9.00
2019-03-09T16:04:41.034Z,9.00
2019-03-09T16:07:10.833Z,9.00
2019-03-09T16:09:46.755Z,9.10
2019-03-09T16:12:17.591Z,9.10
2019-03-09T16:14:47.323Z,9.00
2019-03-09T16:17:17.491Z,9.00
2019-03-09T16:19:47.637Z,9.00
2019-03-09T16:22:21.295Z,9.10
2019-03-09T16:24:51.345Z,9.10
2019-03-09T16:27:20.990Z,9.00
2019-03-09T16:29:52.743Z,9.00
2019-03-09T16:32:23.777Z,9.00
2019-03-09T16:35:03.993Z,9.00
2019-03-09T16:37:45.791Z,8.90
2019-03-09T16:40:17.656Z,8.90
2019-03-09T16:42:51.571Z,8.90
2019-03-09T16:45:21.221Z,8.80
2019-03-09T16:47:54.514Z,8.80
2019-03-09T17:09:36.383Z,8.60
2019-03-09T17:12:05.542Z,8.50
2019-03-09T17:14:36.758Z,8.50
2019-03-09T17:17:24.515Z,8.40
2019-03-09T17:19:54.615Z,8.40
2019-03-09T17:22:32.536Z,8.40
2019-03-09T17:25:03.229Z,8.50
2019-03-09T17:27:41.487Z,8.50
2019-03-09T17:30:15.743Z,8.40
2019-03-09T17:32:48.960Z,8.40
2019-03-09T17:35:19.659Z,8.30
2019-03-09T17:37:51.048Z,8.40
2019-03-09T17:40:25.017Z,8.30
2019-03-09T17:42:58.128Z,8.30
2019-03-09T17:45:27.494Z,8.30
2019-03-09T17:47:56.631Z,8.30
2019-03-09T17:50:25.702Z,8.30
2019-03-09T17:52:57.774Z,8.30
2019-03-09T17:55:28.945Z,8.30
2019-03-09T17:57:58.931Z,8.40
2019-03-09T18:00:42.080Z,8.40
2019-03-09T18:03:11.180Z,8.40
2019-03-09T18:05:40.208Z,8.40
2019-03-09T18:08:11.221Z,8.50
2019-03-09T18:10:56.317Z,8.50
2019-03-09T18:13:26.359Z,8.50
2019-03-09T18:15:55.478Z,8.50
2019-03-09T18:18:25.896Z,8.50
2019-03-09T18:21:05.077Z,8.50
2019-03-09T18:23:36.290Z,8.50
2019-03-09T18:26:05.309Z,8.50
2019-03-09T18:28:34.666Z,8.50
2019-03-09T18:31:14.697Z,8.50
2019-03-09T18:33:57.815Z,8.50
2019-03-09T18:36:32.854Z,8.50
2019-03-09T18:39:12.921Z,8.50
2019-03-09T18:41:42.188Z,8.50
2019-03-09T18:44:15.678Z,8.50
2019-03-09T18:47:11.266Z,8.40
2019-03-09T18:49:40.234Z,8.40
2019-03-09T18:52:09.264Z,8.50
2019-03-09T18:54:43.517Z,8.50
2019-03-09T18:57:12.545Z,8.50
2019-03-09T18:59:41.567Z,8.50
2019-03-09T19:02:10.624Z,8.50
2019-03-09T19:04:42.166Z,8.50
2019-03-09T19:07:11.134Z,8.50
2019-03-09T19:09:45.933Z,8.50
2019-03-09T19:12:14.874Z,8.40
2019-03-09T19:14:46.008Z,8.40
2019-03-09T19:17:15.014Z,8.50
2019-03-09T19:19:44.007Z,8.50
2019-03-09T19:22:12.888Z,8.50
2019-03-09T19:24:47.346Z,8.40
2019-03-09T19:27:18.367Z,8.40
2019-03-09T19:29:49.589Z,8.40
2019-03-09T19:32:18.616Z,8.40
2019-03-09T19:34:47.558Z,8.50
2019-03-09T19:37:18.618Z,8.50
2019-03-09T19:39:47.514Z,8.50
2019-03-09T19:42:17.469Z,8.40
2019-03-09T19:44:46.431Z,8.40
2019-03-09T19:47:15.376Z,8.50
2019-03-09T19:49:44.494Z,8.50
2019-03-09T19:52:15.757Z,8.50
2019-03-09T19:55:04.200Z,8.60
2019-03-09T20:04:05.021Z,8.60
2019-03-09T20:06:34.065Z,8.60
2019-03-09T20:09:21.221Z,8.50
2019-03-09T20:11:50.312Z,8.50
2019-03-09T20:14:20.406Z,8.50
2019-03-09T20:16:54.557Z,8.50
2019-03-09T20:19:29.012Z,8.50
2019-03-09T20:22:00.743Z,8.50
2019-03-09T20:24:30.190Z,8.50
2019-03-09T20:27:05.173Z,8.50
2019-03-09T20:30:21.854Z,8.40
2019-03-09T20:36:46.465Z,8.40
2019-03-09T21:14:44.623Z,8.30
2019-03-09T21:21:30.926Z,8.30
2019-03-09T22:04:43.646Z,8.30
2019-03-09T22:07:44.953Z,8.30
2019-03-09T22:10:23.283Z,8.30
2019-03-09T22:13:05.921Z,8.30
2019-03-09T22:16:14.928Z,8.30
2019-03-09T22:18:49.013Z,8.20
2019-03-09T22:21:36.425Z,8.20
2019-03-09T22:24:37.479Z,8.20
2019-03-09T22:27:48.896Z,8.30
2019-03-09T22:31:02.512Z,8.20
2019-03-09T22:33:31.693Z,8.20
2019-03-09T22:36:01.489Z,8.20
2019-03-09T22:38:30.502Z,8.20
2019-03-09T22:41:07.736Z,8.20
2019-03-09T22:43:47.414Z,8.20
2019-03-09T22:46:23.687Z,8.30
2019-03-09T22:49:00.658Z,8.30
2019-03-09T22:51:41.575Z,8.30
2019-03-09T22:54:29.752Z,8.30
2019-03-09T22:57:00.316Z,8.30
2019-03-09T22:59:38.381Z,8.30
2019-03-09T23:02:24.423Z,8.30
2019-03-09T23:04:56.096Z,8.20
2019-03-09T23:07:35.951Z,8.20
2019-03-09T23:10:06.873Z,8.20
2019-03-09T23:12:42.820Z,8.20
2019-03-09T23:15:22.044Z,8.20
2019-03-09T23:17:59.486Z,8.20
2019-03-09T23:20:30.099Z,8.20
2019-03-09T23:23:38.935Z,8.30
2019-03-09T23:26:35.873Z,8.20
2019-03-09T23:29:45.564Z,8.20
2019-03-09T23:32:20.611Z,8.20
2019-03-09T23:34:57.146Z,8.20
2019-03-09T23:37:33.960Z,8.20
2019-03-09T23:40:20.605Z,8.20
2019-03-09T23:42:51.948Z,8.20
2019-03-09T23:45:27.136Z,8.20
2019-03-09T23:48:03.501Z,8.30
2019-03-09T23:50:35.393Z,8.30
2019-03-09T23:53:13.654Z,8.30
2019-03-09T23:55:46.950Z,8.30
2019-03-09T23:58:16.078Z,8.30
